Airfield :
LOGIN :

Register | Disclaimer

   EN    FR    IT 

 










Legend :    VFR   Marginal VFR   IFR   Intensive IFR   Very Intensive IFR
Visi :
Ceiling :
>= 8 km
>= 3000ft
5 to 8 km
1000 to 3000 ft
1500m to 5 km
500 to 1000 ft
800 to 1500m
200 to 500 ft
< 800m
< 200 ft
Symbols :   Thunderstorms  Fog  Heavy snow  Heavy precipitations  Wind > 20 kt
SIGMETs :     Misc.  Thunderstorms  Icing  Turbulence  Mountain Waves  Volcanic Ashes







- Airport Elevation : 614 ft
- IATA code : CRL


EBCI - Charleroi

CURRENT METAR :
  • 200650Z 33006KT 300V360 2500 BR BKN002 BKN005 10/10 Q1009 TEMPO 1200 BR -DZ

EXPIRED METARs :
  • 200620Z 32004KT 280V010 2500 BR BKN002 BKN005 10/10 Q1009 TEMPO 1200 BR -DZ
  • 200550Z 36006KT 330V030 2200 BR BKN002 BKN005 10/09 Q1008 TEMPO 1200 BR -DZ
  • 200520Z 35005KT 320V020 1800 BR -DZ BKN002 BKN003 10/10 Q1008 TEMPO 0800 FG -DZ BKN001
  • 200450Z 32004KT 270V010 1800 BR -DZ BKN002 BKN003 10/10 Q1008 TEMPO 0800 FG -DZ BKN001
  • 200420Z 32005KT 280V010 2000 BR -DZ BKN002 BKN003 10/10 Q1008 TEMPO 0800 FG

TAF TAF EBCI
Valid from the 20 at 06:00 until the 21 at 12:00 UTC


200510Z 2006/2112 31008KT 3500 BR BKN005
TEMPO 2006/2014 1500 -DZ BR BKN003
PROB40 2006/2009 0200 FG BKN001
PROB30
TEMPO 2015/2019 6000 NSW BKN008
TEMPO 2021/2110 2000 -DZ BR BKN003
PROB30
TEMPO 2100/2107 0200 FG BKN001
TEMPO 2110/2112 6000 NSW BKN008
No reported NOTAMs for that airfield.



MET'MAP, your aeronautical weather chart ! - Copyright ORBIFLY December 2007 - Disclaimer

ORBIFLY MET'MAP TEAM :

Programming & Development : Alexandra Zaïnal
Concept & Development : Baudouin d'Aumeries
Co-Development & Prog : Marc-Olivier Méhu
Technical & hardware support : Manuel Goepfert

Contact : metmap@orbifly.com




SOURCES & CREDITS :

   NOAA